createdAt,value
2022-08-31T00:01:08.245Z,22.70
2022-08-31T00:03:34.998Z,22.80
2022-08-31T00:06:01.009Z,22.90
2022-08-31T00:08:27.074Z,23.00
2022-08-31T00:10:53.037Z,22.70
2022-08-31T00:13:19.077Z,22.80
2022-08-31T00:15:45.193Z,22.70
2022-08-31T00:18:11.297Z,22.90
2022-08-31T00:20:38.054Z,23.00
2022-08-31T00:23:04.094Z,23.10
2022-08-31T00:25:30.044Z,22.80
2022-08-31T00:27:55.984Z,22.80
2022-08-31T00:30:21.987Z,22.90
2022-08-31T00:32:48.695Z,22.90
2022-08-31T00:35:15.916Z,22.80
2022-08-31T00:37:42.034Z,22.90
2022-08-31T00:40:08.852Z,22.80
2022-08-31T00:42:34.882Z,22.40
2022-08-31T00:45:00.875Z,22.40
2022-08-31T00:47:26.801Z,22.60
2022-08-31T00:49:53.545Z,22.80
2022-08-31T00:52:19.586Z,22.90
2022-08-31T00:54:46.216Z,22.90
2022-08-31T00:57:12.241Z,22.90
2022-08-31T00:59:38.248Z,22.80
2022-08-31T01:02:05.048Z,22.70
2022-08-31T01:04:31.096Z,22.60
2022-08-31T01:06:58.081Z,22.70
2022-08-31T01:09:24.064Z,22.40
2022-08-31T01:11:50.022Z,22.30
2022-08-31T01:14:16.052Z,22.30
2022-08-31T01:16:42.046Z,22.40
2022-08-31T01:19:08.039Z,22.30
2022-08-31T01:21:34.085Z,22.50
2022-08-31T01:24:00.069Z,22.60
2022-08-31T01:26:26.008Z,22.70
2022-08-31T01:28:52.137Z,22.50
2022-08-31T01:31:18.217Z,22.60
2022-08-31T01:33:44.253Z,22.60
2022-08-31T01:36:13.144Z,22.60
2022-08-31T01:38:41.908Z,22.70
2022-08-31T01:41:07.875Z,22.70
2022-08-31T01:43:33.874Z,22.70
2022-08-31T01:45:59.832Z,22.70
2022-08-31T01:48:26.495Z,22.70
2022-08-31T01:50:52.712Z,22.70
2022-08-31T01:53:18.798Z,22.70
2022-08-31T01:55:45.713Z,22.70
2022-08-31T01:58:11.714Z,22.70
2022-08-31T02:00:37.674Z,22.60
2022-08-31T02:03:04.398Z,22.50
2022-08-31T02:05:30.394Z,22.40
2022-08-31T02:07:56.354Z,22.40
2022-08-31T02:10:22.300Z,22.50
2022-08-31T02:12:48.284Z,22.60
2022-08-31T02:15:14.239Z,22.60
2022-08-31T02:17:40.184Z,22.50
2022-08-31T02:20:06.177Z,22.00
2022-08-31T02:22:32.832Z,21.50
2022-08-31T02:24:58.790Z,21.50
2022-08-31T02:27:24.841Z,21.60
2022-08-31T02:29:50.816Z,21.90
2022-08-31T02:32:19.727Z,22.10
2022-08-31T02:34:46.367Z,22.20
2022-08-31T02:37:12.337Z,22.30
2022-08-31T02:39:38.661Z,22.40
2022-08-31T02:42:05.650Z,22.40
2022-08-31T02:44:34.277Z,22.00
2022-08-31T02:47:00.530Z,22.10
2022-08-31T02:49:26.986Z,22.10
2022-08-31T02:51:53.652Z,22.10
2022-08-31T02:54:20.901Z,21.90
2022-08-31T02:56:47.250Z,22.10
2022-08-31T02:59:13.479Z,22.20
2022-08-31T03:01:41.100Z,22.20
2022-08-31T03:04:07.337Z,22.10
2022-08-31T05:24:23.149Z,22.00
2022-08-31T05:26:50.850Z,22.20
2022-08-31T05:29:17.425Z,22.00
2022-08-31T05:31:43.425Z,22.10
2022-08-31T05:34:10.160Z,22.20
2022-08-31T05:36:36.189Z,22.20
2022-08-31T05:39:02.203Z,22.00
2022-08-31T05:41:28.144Z,21.70
2022-08-31T05:43:54.879Z,22.00
2022-08-31T05:46:20.976Z,22.30
2022-08-31T05:48:49.155Z,22.20
2022-08-31T05:51:16.442Z,22.00
2022-08-31T05:53:42.521Z,21.90
2022-08-31T05:56:08.461Z,22.10
2022-08-31T05:58:35.060Z,22.00
2022-08-31T06:01:01.052Z,22.40
2022-08-31T06:03:26.993Z,22.70
2022-08-31T06:05:52.956Z,22.70
2022-08-31T06:08:18.975Z,22.70
2022-08-31T06:10:53.186Z,22.80
2022-08-31T06:16:05.192Z,22.90
2022-08-31T06:18:31.234Z,22.70
2022-08-31T06:52:11.304Z,23.00
2022-08-31T07:20:11.531Z,23.90
2022-08-31T07:22:37.577Z,23.60
2022-08-31T07:25:03.644Z,24.00
2022-08-31T07:27:29.669Z,24.30
2022-08-31T07:29:55.660Z,23.90
2022-08-31T07:32:22.467Z,23.80
2022-08-31T07:34:55.213Z,23.60
2022-08-31T07:37:23.582Z,23.80
2022-08-31T07:39:49.581Z,23.70
2022-08-31T07:42:15.582Z,23.60
2022-08-31T07:44:41.571Z,23.80
2022-08-31T07:47:07.896Z,23.80
2022-08-31T07:49:34.855Z,23.70
2022-08-31T07:52:00.842Z,23.90
2022-08-31T07:54:26.816Z,23.90
2022-08-31T07:56:52.827Z,24.10
2022-08-31T07:59:18.804Z,24.00
2022-08-31T08:01:44.915Z,24.10
2022-08-31T08:04:10.994Z,23.70
2022-08-31T08:06:37.018Z,23.70
2022-08-31T08:09:22.201Z,23.40
2022-08-31T08:11:49.800Z,23.40
2022-08-31T08:14:17.501Z,23.50
2022-08-31T08:16:44.498Z,23.30
2022-08-31T08:19:11.459Z,23.20
2022-08-31T08:21:43.827Z,22.70
2022-08-31T08:24:10.215Z,22.70
2022-08-31T08:26:38.149Z,22.60
2022-08-31T08:29:05.391Z,22.50
2022-08-31T08:36:52.922Z,22.50
2022-08-31T08:42:00.220Z,22.70
2022-08-31T10:29:31.909Z,22.70
2022-08-31T10:31:57.863Z,22.90
2022-08-31T10:34:23.876Z,23.00
2022-08-31T10:36:49.869Z,23.10
2022-08-31T10:39:16.594Z,23.20
2022-08-31T10:41:42.568Z,23.70
2022-08-31T10:44:08.530Z,23.60
2022-08-31T10:46:35.668Z,23.80
2022-08-31T10:49:01.747Z,24.00
2022-08-31T10:51:27.725Z,24.10
2022-08-31T10:53:53.662Z,23.90
2022-08-31T10:56:20.372Z,24.20
2022-08-31T10:58:50.026Z,24.30
2022-08-31T11:01:16.021Z,24.20
2022-08-31T11:03:42.766Z,24.30
2022-08-31T11:06:08.743Z,24.70
2022-08-31T11:08:34.718Z,24.90
2022-08-31T11:11:01.595Z,24.90
2022-08-31T11:13:27.580Z,24.20
2022-08-31T11:15:53.588Z,24.00
2022-08-31T11:18:20.363Z,24.10
2022-08-31T11:20:46.394Z,24.10
2022-08-31T11:23:12.379Z,24.40
2022-08-31T11:25:39.299Z,24.50
2022-08-31T11:28:05.277Z,24.30
2022-08-31T11:30:31.240Z,23.80
2022-08-31T11:32:58.079Z,24.10
2022-08-31T11:35:24.061Z,24.20
2022-08-31T11:37:50.134Z,24.20
2022-08-31T11:40:16.993Z,23.90
2022-08-31T11:42:42.989Z,24.00
2022-08-31T11:45:11.827Z,23.70
2022-08-31T11:47:39.937Z,23.60
2022-08-31T11:50:07.653Z,23.70
2022-08-31T11:52:33.969Z,23.70
2022-08-31T11:55:00.945Z,23.50
2022-08-31T11:57:26.894Z,23.30
2022-08-31T11:59:52.843Z,23.60
2022-08-31T12:02:19.665Z,23.60
2022-08-31T12:04:45.803Z,23.70
2022-08-31T12:07:11.784Z,23.70
2022-08-31T12:09:37.714Z,23.60
2022-08-31T12:12:03.674Z,23.70
2022-08-31T12:14:30.420Z,23.80
2022-08-31T12:16:56.429Z,23.80
2022-08-31T12:19:22.412Z,23.50
2022-08-31T12:21:48.445Z,22.90
2022-08-31T12:24:18.694Z,22.50
2022-08-31T12:26:45.595Z,22.80
2022-08-31T12:29:12.278Z,22.80
2022-08-31T12:31:38.379Z,23.00
2022-08-31T12:34:04.426Z,22.70
2022-08-31T12:36:30.385Z,22.60
2022-08-31T12:38:57.104Z,22.60
2022-08-31T12:41:25.388Z,22.80
2022-08-31T12:43:51.570Z,22.60
2022-08-31T12:46:17.566Z,22.30
2022-08-31T12:48:43.688Z,22.20
2022-08-31T12:51:09.717Z,22.60
2022-08-31T12:53:35.670Z,22.70
2022-08-31T12:56:01.609Z,23.00
2022-08-31T12:58:27.985Z,22.90
2022-08-31T13:00:53.963Z,23.00
2022-08-31T13:03:20.987Z,23.00
2022-08-31T13:05:47.919Z,22.90
2022-08-31T13:08:14.254Z,22.90
2022-08-31T13:10:40.494Z,23.10
2022-08-31T13:13:08.857Z,22.80
2022-08-31T13:15:39.431Z,22.80
2022-08-31T13:18:06.070Z,22.90
2022-08-31T13:20:32.427Z,23.00
2022-08-31T13:22:59.540Z,23.00
2022-08-31T15:28:25.782Z,20.70
2022-08-31T15:30:51.726Z,20.70
2022-08-31T15:33:17.699Z,20.80
2022-08-31T15:35:43.656Z,20.80
2022-08-31T15:38:10.341Z,20.80
2022-08-31T15:40:39.019Z,20.90
2022-08-31T15:43:05.369Z,20.90
2022-08-31T15:45:32.138Z,20.90
2022-08-31T15:47:58.149Z,20.60
2022-08-31T15:50:25.046Z,20.70
2022-08-31T15:52:52.193Z,20.80
2022-08-31T15:55:18.306Z,20.80
2022-08-31T15:57:44.252Z,20.90
2022-08-31T16:00:10.218Z,21.00
2022-08-31T16:02:36.274Z,20.60
2022-08-31T16:05:02.290Z,20.70
2022-08-31T16:07:28.263Z,20.30
2022-08-31T16:09:54.839Z,20.50
2022-08-31T16:12:20.818Z,20.40
2022-08-31T16:14:47.416Z,20.50
2022-08-31T16:17:13.418Z,20.20
2022-08-31T16:19:39.381Z,20.10
2022-08-31T16:22:05.373Z,20.20
2022-08-31T16:24:31.342Z,20.20
2022-08-31T16:26:57.510Z,20.00
2022-08-31T16:29:23.501Z,20.10
2022-08-31T16:31:49.554Z,20.10
2022-08-31T16:34:15.561Z,20.20
2022-08-31T16:36:42.260Z,19.90
2022-08-31T16:39:09.367Z,19.90
2022-08-31T16:41:35.583Z,20.10
2022-08-31T16:44:18.981Z,19.90
2022-08-31T16:46:46.553Z,19.90
2022-08-31T16:49:12.571Z,19.90
2022-08-31T16:51:38.533Z,19.70
2022-08-31T16:54:04.496Z,19.10
2022-08-31T16:56:30.473Z,19.10
2022-08-31T16:58:57.409Z,19.30
2022-08-31T17:01:23.777Z,19.30
2022-08-31T17:03:49.834Z,19.20
2022-08-31T17:06:15.802Z,19.30
2022-08-31T17:08:42.447Z,19.50
2022-08-31T17:11:08.420Z,19.50
2022-08-31T17:13:34.386Z,19.50
2022-08-31T17:16:01.186Z,19.60
2022-08-31T17:18:27.226Z,20.00
2022-08-31T17:20:53.209Z,20.20
2022-08-31T17:23:19.164Z,20.00
2022-08-31T17:25:45.153Z,20.00
2022-08-31T17:28:11.148Z,20.00
2022-08-31T17:30:37.117Z,19.80
2022-08-31T17:33:03.053Z,19.90
2022-08-31T17:35:29.024Z,19.90
2022-08-31T17:37:55.057Z,20.00
2022-08-31T17:40:21.134Z,19.90
2022-08-31T17:42:47.863Z,20.00
2022-08-31T17:45:13.933Z,19.90
2022-08-31T17:47:39.891Z,20.00
2022-08-31T17:50:06.821Z,19.70
2022-08-31T17:52:32.875Z,19.60
2022-08-31T17:54:59.454Z,19.80
2022-08-31T17:57:26.247Z,19.70
2022-08-31T17:59:52.236Z,19.50
2022-08-31T18:02:18.210Z,19.80
2022-08-31T18:04:46.017Z,19.80
2022-08-31T18:07:12.303Z,20.00
2022-08-31T18:09:38.863Z,20.00
2022-08-31T18:12:05.196Z,19.80
2022-08-31T18:14:31.513Z,19.70
2022-08-31T18:16:59.177Z,19.60
2022-08-31T18:19:27.302Z,19.60
2022-08-31T20:10:29.867Z,19.30
2022-08-31T20:12:56.381Z,19.40
2022-08-31T20:15:23.131Z,19.40
2022-08-31T20:17:49.127Z,19.50
2022-08-31T20:20:15.095Z,19.40
2022-08-31T20:22:41.133Z,19.20
2022-08-31T20:25:07.124Z,19.00
2022-08-31T20:27:33.096Z,19.20
2022-08-31T20:30:00.980Z,19.20
2022-08-31T20:32:27.243Z,19.20
2022-08-31T20:34:53.192Z,19.20
2022-08-31T20:37:19.159Z,19.30
2022-08-31T20:39:46.044Z,19.60
2022-08-31T20:42:11.998Z,19.70
2022-08-31T20:44:38.854Z,19.90
2022-08-31T20:47:04.815Z,20.00
2022-08-31T20:49:30.807Z,20.10
2022-08-31T20:51:56.782Z,20.00
2022-08-31T20:54:23.422Z,19.70
2022-08-31T20:56:49.468Z,19.40
2022-08-31T20:59:16.210Z,19.30
2022-08-31T21:01:42.286Z,19.40
2022-08-31T21:04:08.342Z,19.60
2022-08-31T21:06:35.034Z,19.70
2022-08-31T21:09:00.980Z,19.80
2022-08-31T21:11:26.947Z,19.80
2022-08-31T21:13:52.916Z,19.80
2022-08-31T21:16:18.921Z,19.90
2022-08-31T21:18:45.719Z,20.00
2022-08-31T21:21:11.685Z,19.90
2022-08-31T21:23:37.649Z,19.90
2022-08-31T21:26:04.358Z,19.70
2022-08-31T21:28:30.364Z,19.90
2022-08-31T21:30:56.342Z,20.00
2022-08-31T21:33:23.213Z,20.10
2022-08-31T21:35:49.205Z,20.10
2022-08-31T21:38:15.157Z,20.10
2022-08-31T21:40:42.260Z,20.00
2022-08-31T21:43:08.340Z,19.90
2022-08-31T21:45:34.294Z,19.90
2022-08-31T21:48:00.257Z,19.80
2022-08-31T21:50:26.190Z,19.80
2022-08-31T21:52:52.137Z,19.80
2022-08-31T21:55:18.167Z,20.00
2022-08-31T21:57:44.116Z,19.80
2022-08-31T22:00:10.960Z,19.40
2022-08-31T22:02:40.008Z,19.50
2022-08-31T22:05:10.052Z,19.80
2022-08-31T22:07:36.682Z,19.60
2022-08-31T22:10:04.331Z,19.50
2022-08-31T22:12:30.264Z,19.60
2022-08-31T22:14:56.474Z,19.50
2022-08-31T22:17:29.480Z,19.40
2022-08-31T22:20:09.315Z,19.50
2022-08-31T22:22:36.083Z,19.70
2022-08-31T22:25:02.942Z,19.90
2022-08-31T22:27:29.844Z,19.90
2022-08-31T22:29:55.866Z,19.50
2022-08-31T22:32:22.566Z,19.30
2022-08-31T22:34:48.609Z,19.50
2022-08-31T22:37:14.583Z,19.30
2022-08-31T22:39:40.522Z,19.20
2022-08-31T22:42:06.534Z,19.40
2022-08-31T22:44:32.481Z,19.60
2022-08-31T22:46:59.289Z,19.70
2022-08-31T22:49:25.607Z,19.60
2022-08-31T22:51:51.881Z,19.50
2022-08-31T22:54:19.624Z,19.30
2022-08-31T22:56:45.944Z,19.40
2022-08-31T22:59:12.212Z,19.60
